Terminal Aerodrome Forecast
Issued by NWS

Home | Current Version | Previous Version | Text Only | Print | Product List | Glossary On
Versions: 1 2 3 4 5 6 7 8 9 10 11 12 13 14 15 16 17 18
000
FTUS45 KTWC 290606 AAA
TAFOLS
TAF AMD
KOLS 290606Z 2906/3006 17005KT P6SM VCTS SCT100CB BKN180
      TEMPO 2906/2907 VRB15G25KT 5SM -TSRA BKN100CB
     FM290900 VRB04KT P6SM VCSH SCT080 BKN120
     FM291900 04010KT P6SM VCSH SCT080 SCT150
     FM300100 16009KT P6SM SCT080 BKN120=

USA.gov is the U.S. government's official web portal to all federal, state and local government web resources and services.